Time;durP1;ratioP1;P1;durP2;ratioP2;P2;SDS_P1;SDS_P2;PMS_P1;PMS_P2;Temp;Humidity;BMP_temperature;BMP_pressure;BME280_temperature;BME280_humidity;BME280_pressure;Samples;Min_cycle;Max_cycle;Signal;HPM_P1;HPM_P2
2022/06/11 00:01:32;;;;;;;2.90;1.35;;;21.40;99.90;;;;;;5051802;28;20196;-73
2022/06/11 00:04:06;;;;;;;2.72;1.13;;;21.30;99.90;;;;;;5045651;28;20220;-72
2022/06/11 00:06:35;;;;;;;1.88;1.20;;;21.30;99.90;;;;;;5047759;28;20177;-72
2022/06/11 00:09:04;;;;;;;3.55;1.40;;;21.30;99.90;;;;;;5049684;28;20177;-74
2022/06/11 00:11:30;;;;;;;2.95;1.10;;;21.30;99.90;;;;;;5041454;28;20184;-72
2022/06/11 00:13:58;;;;;;;3.60;1.20;;;21.30;99.90;;;;;;5048126;28;20264;-73
2022/06/11 00:16:27;;;;;;;1.60;1.20;;;21.30;99.90;;;;;;5067702;28;20184;-73
2022/06/11 00:18:59;;;;;;;2.95;1.23;;;21.30;99.90;;;;;;5052724;28;20197;-72
2022/06/11 00:21:28;;;;;;;3.47;1.30;;;21.30;99.90;;;;;;5042810;28;20262;-73
2022/06/11 00:23:56;;;;;;;3.33;1.15;;;21.30;99.90;;;;;;5052533;28;20217;-73
2022/06/11 00:26:25;;;;;;;2.22;1.25;;;21.30;99.90;;;;;;5052115;28;20181;-73
2022/06/11 00:28:54;;;;;;;1.50;1.10;;;21.30;99.90;;;;;;5049985;28;20324;-73
2022/06/11 00:31:20;;;;;;;2.92;1.60;;;21.30;99.90;;;;;;5049974;28;20170;-72
2022/06/11 00:33:46;;;;;;;2.38;1.33;;;21.30;99.90;;;;;;5048302;28;21654;-73
2022/06/11 00:36:12;;;;;;;1.83;1.10;;;21.30;99.90;;;;;;5083030;28;20177;-73
2022/06/11 00:38:42;;;;;;;2.88;1.00;;;21.20;99.90;;;;;;5049685;28;20177;-72
2022/06/11 00:41:09;;;;;;;1.92;1.10;;;21.20;99.90;;;;;;5048643;28;20197;-72
2022/06/11 00:43:37;;;;;;;3.72;1.33;;;21.20;99.90;;;;;;5049343;28;20201;-72
2022/06/11 00:46:40;;;;;;;2.25;1.10;;;21.30;99.90;;;;;;5054004;28;20201;-73
2022/06/11 00:49:33;;;;;;;3.17;2.20;;;21.20;99.90;;;;;;5050879;28;20170;-72
2022/06/11 00:52:30;;;;;;;1.92;1.42;;;21.20;99.90;;;;;;5086963;28;20178;-73
2022/06/11 00:55:05;;;;;;;2.67;1.60;;;21.20;99.90;;;;;;5068727;28;20257;-73
2022/06/11 00:57:39;;;;;;;3.53;1.38;;;21.20;99.90;;;;;;5068035;28;20169;-72
2022/06/11 01:00:17;;;;;;;2.35;1.20;;;21.20;99.90;;;;;;5051478;28;20292;-72
2022/06/11 01:02:44;;;;;;;2.90;1.52;;;21.20;99.90;;;;;;5049422;28;20223;-72
2022/06/11 01:05:16;;;;;;;1.42;1.10;;;21.20;99.90;;;;;;5051981;28;20296;-72
2022/06/11 01:07:45;;;;;;;1.95;1.35;;;21.20;99.90;;;;;;5048451;28;20204;-72
2022/06/11 01:10:29;;;;;;;2.33;1.38;;;21.20;99.90;;;;;;5066421;28;20181;-73
2022/06/11 01:13:32;;;;;;;1.83;1.20;;;21.10;99.90;;;;;;5050776;28;20204;-72
2022/06/11 01:16:10;;;;;;;3.70;1.38;;;21.10;99.90;;;;;;5067054;28;20288;-72
2022/06/11 01:18:40;;;;;;;2.10;1.10;;;21.10;99.90;;;;;;5047559;28;20200;-74
2022/06/11 01:21:14;;;;;;;3.63;1.30;;;21.10;99.90;;;;;;5049829;28;20212;-72
2022/06/11 01:23:55;;;;;;;2.00;1.30;;;21.10;99.90;;;;;;5066992;28;20230;-71
2022/06/11 01:26:46;;;;;;;2.75;1.20;;;21.10;99.90;;;;;;5051350;28;20173;-72
2022/06/11 01:29:20;;;;;;;7.97;1.73;;;21.00;99.90;;;;;;5048845;28;20224;-72
2022/06/11 01:31:54;;;;;;;2.38;1.42;;;21.00;99.90;;;;;;5050499;28;21769;-71
2022/06/11 01:34:34;;;;;;;2.85;1.20;;;21.00;99.90;;;;;;5051274;28;20172;-72
2022/06/11 01:37:10;;;;;;;1.80;1.10;;;21.00;99.90;;;;;;5047073;28;20173;-71
2022/06/11 01:39:51;;;;;;;2.47;1.30;;;20.90;99.90;;;;;;5051181;28;20219;-72
2022/06/11 01:42:27;;;;;;;2.20;1.38;;;20.90;99.90;;;;;;5046396;28;20215;-71
2022/06/11 01:45:20;;;;;;;2.15;1.23;;;20.90;99.90;;;;;;5047341;28;20279;-72
2022/06/11 01:47:47;;;;;;;2.40;1.30;;;20.90;99.90;;;;;;5049452;28;20207;-71
2022/06/11 01:50:17;;;;;;;2.17;1.33;;;20.90;99.90;;;;;;5044535;28;20177;-72
2022/06/11 01:53:15;;;;;;;1.95;1.15;;;20.90;99.90;;;;;;5041770;28;20181;-71
2022/06/11 01:56:06;;;;;;;2.10;1.33;;;20.90;99.90;;;;;;5062334;28;20204;-72
2022/06/11 01:58:58;;;;;;;2.72;1.63;;;20.90;99.90;;;;;;5051473;28;20177;-70
2022/06/11 02:01:52;;;;;;;1.98;1.48;;;20.90;99.90;;;;;;5081341;28;20189;-72
2022/06/11 02:04:34;;;;;;;3.45;1.60;;;20.80;99.90;;;;;;5059568;28;20214;-71
2022/06/11 02:07:14;;;;;;;2.55;1.67;;;20.80;99.90;;;;;;5052146;28;20200;-72
2022/06/11 02:09:56;;;;;;;2.00;1.50;;;20.80;99.90;;;;;;5050336;28;20303;-72
2022/06/11 02:12:45;;;;;;;2.55;1.60;;;20.80;99.90;;;;;;5044733;28;20335;-73
2022/06/11 02:15:38;;;;;;;3.50;1.45;;;20.80;99.90;;;;;;5047163;28;20200;-72
2022/06/11 02:18:12;;;;;;;2.28;1.40;;;20.80;99.90;;;;;;5081072;28;20197;-72
2022/06/11 02:20:45;;;;;;;2.05;1.50;;;20.80;99.90;;;;;;5048537;28;20231;-72
2022/06/11 02:23:29;;;;;;;3.58;1.50;;;20.80;99.90;;;;;;5047287;28;20288;-72
2022/06/11 02:26:04;;;;;;;3.08;1.50;;;20.70;99.90;;;;;;5049234;28;20186;-73
2022/06/11 02:28:35;;;;;;;1.50;1.23;;;20.70;99.90;;;;;;5046517;28;20192;-72
2022/06/11 02:31:04;;;;;;;3.47;1.50;;;20.70;99.90;;;;;;5048774;28;20199;-73
2022/06/11 02:33:32;;;;;;;3.38;1.70;;;20.70;99.90;;;;;;5042067;28;20174;-73
2022/06/11 02:36:14;;;;;;;2.65;1.48;;;20.70;99.90;;;;;;5054530;28;20266;-72
2022/06/11 02:38:40;;;;;;;2.22;1.40;;;20.70;99.90;;;;;;5047779;28;20285;-72
2022/06/11 02:41:13;;;;;;;3.00;1.40;;;20.70;99.90;;;;;;5044774;28;20189;-71
2022/06/11 02:43:38;;;;;;;1.90;1.30;;;20.70;99.90;;;;;;5050076;28;20208;-72
2022/06/11 02:48:51;;;;;;;3.17;1.73;;;20.70;99.90;;;;;;5051397;28;20280;-72
2022/06/11 02:51:24;;;;;;;2.17;1.33;;;20.70;99.90;;;;;;5050370;28;20180;-74
2022/06/11 02:53:50;;;;;;;2.67;1.52;;;20.70;99.90;;;;;;5082054;28;20259;-71
2022/06/11 02:56:18;;;;;;;3.38;1.30;;;20.70;99.90;;;;;;5054511;28;20209;-72
2022/06/11 02:58:44;;;;;;;2.33;1.65;;;20.60;99.90;;;;;;5049839;28;20186;-72
2022/06/11 03:01:13;;;;;;;2.20;1.42;;;20.60;99.90;;;;;;5054647;28;20181;-72
2022/06/11 03:03:41;;;;;;;2.58;1.60;;;20.60;99.90;;;;;;5054599;28;20192;-72
2022/06/11 03:06:06;;;;;;;2.78;1.45;;;20.60;99.90;;;;;;5050538;28;20181;-72
2022/06/11 03:08:32;;;;;;;2.17;1.42;;;20.60;99.90;;;;;;5083219;28;20198;-72
2022/06/11 03:10:58;;;;;;;2.28;1.30;;;20.60;99.90;;;;;;5043603;28;20177;-71
2022/06/11 03:13:28;;;;;;;2.17;1.40;;;20.60;99.90;;;;;;5051469;28;20178;-72
2022/06/11 03:15:54;;;;;;;3.55;1.40;;;20.60;99.90;;;;;;5040951;28;20198;-72
2022/06/11 03:18:20;;;;;;;1.67;1.38;;;20.60;99.90;;;;;;5054823;28;20201;-72
2022/06/11 03:20:46;;;;;;;2.67;1.48;;;20.60;99.90;;;;;;5053753;28;20181;-72
2022/06/11 03:23:13;;;;;;;2.35;1.30;;;20.60;99.90;;;;;;5047019;28;20213;-71
2022/06/11 03:25:39;;;;;;;2.88;1.50;;;20.50;99.90;;;;;;5048949;28;20242;-71
2022/06/11 03:28:16;;;;;;;3.20;1.35;;;20.50;99.90;;;;;;5046744;28;20198;-71
2022/06/11 03:30:45;;;;;;;2.55;1.50;;;20.50;99.90;;;;;;5045924;28;20203;-71
2022/06/11 03:33:13;;;;;;;3.88;1.50;;;20.50;99.90;;;;;;5047760;28;20273;-71
2022/06/11 03:35:39;;;;;;;2.30;1.70;;;20.50;99.90;;;;;;5043808;28;20345;-71
2022/06/11 03:38:07;;;;;;;3.78;1.42;;;20.50;99.90;;;;;;5051643;28;20192;-71
2022/06/11 03:40:36;;;;;;;2.47;1.30;;;20.50;99.90;;;;;;5049386;28;20267;-71
2022/06/11 03:43:04;;;;;;;2.78;1.50;;;20.50;99.90;;;;;;5049717;28;20228;-72
2022/06/11 03:45:30;;;;;;;2.22;1.50;;;20.40;99.90;;;;;;5050914;28;20265;-72
2022/06/11 03:47:56;;;;;;;2.22;1.42;;;20.40;99.90;;;;;;5053177;28;20296;-72
2022/06/11 03:50:31;;;;;;;2.83;1.45;;;20.50;99.90;;;;;;5047939;28;20227;-71
2022/06/11 03:52:57;;;;;;;4.72;1.48;;;20.50;99.90;;;;;;5052485;28;20184;-72
2022/06/11 03:55:26;;;;;;;3.83;1.67;;;20.40;99.90;;;;;;5053528;28;20214;-71
2022/06/11 03:57:55;;;;;;;3.45;1.92;;;20.40;99.90;;;;;;5053253;28;20208;-72
2022/06/11 04:03:14;;;;;;;2.25;1.23;;;20.40;99.90;;;;;;5053021;28;20240;-72
2022/06/11 04:05:44;;;;;;;3.60;1.63;;;20.40;99.90;;;;;;5050940;28;20182;-72
2022/06/11 04:08:14;;;;;;;1.52;1.27;;;20.40;99.90;;;;;;5053338;28;20236;-72
2022/06/11 04:10:41;;;;;;;3.00;1.80;;;20.40;99.90;;;;;;5041374;28;20185;-72
2022/06/11 04:13:10;;;;;;;3.30;1.55;;;20.40;99.90;;;;;;5049069;28;20241;-72
2022/06/11 04:15:37;;;;;;;2.13;1.38;;;20.40;99.90;;;;;;5050121;28;20195;-72
2022/06/11 04:18:04;;;;;;;2.30;1.40;;;20.40;99.90;;;;;;5043885;28;20189;-72
2022/06/11 04:20:31;;;;;;;4.32;1.40;;;20.40;99.90;;;;;;5052975;28;20201;-72
2022/06/11 04:22:57;;;;;;;2.40;1.50;;;20.40;99.90;;;;;;5049081;28;20280;-71
2022/06/11 04:25:22;;;;;;;3.83;1.63;;;20.40;99.90;;;;;;5048075;28;20329;-72
2022/06/11 04:27:53;;;;;;;2.78;1.60;;;20.40;99.90;;;;;;5047282;28;20198;-71
2022/06/11 04:30:21;;;;;;;2.22;1.42;;;20.40;99.90;;;;;;5049875;28;20279;-72
2022/06/11 04:32:47;;;;;;;2.25;1.40;;;20.40;99.90;;;;;;5041598;28;20193;-71
2022/06/11 04:35:13;;;;;;;1.80;1.33;;;20.40;99.90;;;;;;5036729;28;20170;-71
2022/06/11 04:37:39;;;;;;;2.17;1.58;;;20.40;99.90;;;;;;5051522;28;20181;-72
2022/06/11 04:40:10;;;;;;;2.30;1.50;;;20.40;99.90;;;;;;5049566;28;20193;-71
2022/06/11 04:42:36;;;;;;;2.17;1.40;;;20.40;99.90;;;;;;5052441;28;20263;-72
2022/06/11 04:45:05;;;;;;;4.40;1.70;;;20.40;99.90;;;;;;5053054;28;20173;-72
2022/06/11 04:47:31;;;;;;;3.63;1.75;;;20.40;99.90;;;;;;5050789;28;20190;-71
2022/06/11 04:49:59;;;;;;;3.05;2.05;;;20.40;99.90;;;;;;5037674;28;20169;-71
2022/06/11 04:52:28;;;;;;;2.72;1.80;;;20.40;99.90;;;;;;5052211;28;20173;-72
2022/06/11 04:54:56;;;;;;;2.63;1.60;;;20.50;99.90;;;;;;5052643;28;20173;-71
2022/06/11 04:57:23;;;;;;;3.75;1.70;;;20.50;99.90;;;;;;5049390;28;20178;-71
2022/06/11 04:59:49;;;;;;;2.85;1.88;;;20.50;99.90;;;;;;5052716;28;20288;-70
2022/06/11 05:02:15;;;;;;;5.82;4.35;;;20.50;99.90;;;;;;5056312;28;20261;-72
2022/06/11 05:04:41;;;;;;;4.57;2.90;;;20.50;99.90;;;;;;5056573;28;20227;-71
2022/06/11 05:07:06;;;;;;;2.88;2.35;;;20.50;99.90;;;;;;5056081;28;20209;-72
2022/06/11 05:09:34;;;;;;;2.30;1.80;;;20.50;99.90;;;;;;5054758;28;20182;-72
2022/06/11 05:12:04;;;;;;;3.60;2.17;;;20.50;99.90;;;;;;5052802;28;20264;-71
2022/06/11 05:14:30;;;;;;;5.47;2.28;;;20.60;99.90;;;;;;5045160;28;20177;-71
2022/06/11 05:16:56;;;;;;;3.15;1.73;;;20.60;99.90;;;;;;5050016;28;20191;-71
2022/06/11 05:19:25;;;;;;;2.25;2.05;;;20.70;99.90;;;;;;5041232;28;20240;-70
2022/06/11 05:21:51;;;;;;;5.05;2.10;;;20.70;99.90;;;;;;5047308;28;20182;-71
2022/06/11 05:24:19;;;;;;;3.75;1.85;;;20.80;99.90;;;;;;5052736;28;20198;-71
2022/06/11 05:26:59;;;;;;;2.78;1.50;;;20.80;99.90;;;;;;5054750;28;20198;-72
2022/06/11 05:29:30;;;;;;;4.28;1.77;;;20.80;99.90;;;;;;5055000;28;20203;-71
2022/06/11 05:31:56;;;;;;;2.33;1.75;;;20.90;99.90;;;;;;5052893;28;20329;-71
2022/06/11 05:34:24;;;;;;;2.92;1.63;;;20.90;99.90;;;;;;5043960;28;20175;-71
2022/06/11 05:36:55;;;;;;;3.33;1.75;;;21.00;99.90;;;;;;5042821;28;20177;-72
2022/06/11 05:39:23;;;;;;;2.58;1.45;;;21.00;99.90;;;;;;5051628;28;20205;-66
2022/06/11 05:41:51;;;;;;;2.35;1.33;;;21.00;99.90;;;;;;5054667;28;20197;-66
2022/06/11 05:44:17;;;;;;;2.35;1.70;;;21.10;99.90;;;;;;5055583;28;20204;-66
2022/06/11 05:46:45;;;;;;;2.85;1.70;;;21.10;99.90;;;;;;5046972;28;20178;-66
2022/06/11 05:49:21;;;;;;;3.92;2.67;;;21.10;99.90;;;;;;5040333;28;20190;-67
2022/06/11 05:51:53;;;;;;;4.43;2.28;;;21.10;99.90;;;;;;5073683;28;20296;-66
2022/06/11 05:54:25;;;;;;;2.10;1.80;;;21.20;99.90;;;;;;5056323;28;20350;-66
2022/06/11 05:56:51;;;;;;;3.10;1.70;;;21.20;99.90;;;;;;5056338;28;20184;-67
2022/06/11 05:59:23;;;;;;;2.28;1.77;;;21.20;99.90;;;;;;5045566;28;20177;-67
2022/06/11 06:01:50;;;;;;;3.90;1.50;;;21.30;99.90;;;;;;5053421;28;20196;-67
2022/06/11 06:04:16;;;;;;;2.67;1.42;;;21.30;99.90;;;;;;5055733;28;20220;-67
2022/06/11 06:06:42;;;;;;;2.50;1.50;;;21.30;99.90;;;;;;5053561;28;20305;-66
2022/06/11 06:09:08;;;;;;;2.83;1.40;;;21.40;99.90;;;;;;5055171;28;20262;-66
2022/06/11 06:11:34;;;;;;;2.42;1.38;;;21.40;99.90;;;;;;5055557;28;20177;-67
2022/06/11 06:14:03;;;;;;;2.38;1.50;;;21.40;99.90;;;;;;5056497;28;20185;-67
2022/06/11 06:16:30;;;;;;;5.60;2.40;;;21.40;99.90;;;;;;5055763;28;20204;-66
2022/06/11 06:18:57;;;;;;;3.58;2.20;;;21.40;99.90;;;;;;5047397;28;20394;-68
2022/06/11 06:21:25;;;;;;;2.92;1.88;;;21.50;99.90;;;;;;5049253;28;20186;-69
2022/06/11 06:23:56;;;;;;;3.13;1.65;;;21.50;99.90;;;;;;5048749;28;20220;-69
2022/06/11 06:26:22;;;;;;;3.53;1.60;;;21.50;99.90;;;;;;5036494;28;20162;-69
2022/06/11 06:28:50;;;;;;;3.03;1.58;;;21.50;99.90;;;;;;5036602;28;20186;-69
2022/06/11 06:31:17;;;;;;;2.97;1.60;;;21.50;99.90;;;;;;5042704;28;20178;-69
2022/06/11 06:33:46;;;;;;;1.92;1.60;;;21.50;99.90;;;;;;5047999;28;20173;-68
2022/06/11 06:36:17;;;;;;;3.30;1.40;;;21.60;99.90;;;;;;5049791;28;20251;-67
2022/06/11 06:38:44;;;;;;;2.70;1.35;;;21.60;99.90;;;;;;5046997;28;20178;-67
2022/06/11 06:41:11;;;;;;;3.95;1.50;;;21.60;99.90;;;;;;5053895;28;20177;-66
2022/06/11 06:43:37;;;;;;;3.60;1.38;;;21.60;99.90;;;;;;5052356;28;20185;-67
2022/06/11 06:46:03;;;;;;;2.22;1.52;;;21.70;99.90;;;;;;5054967;28;20268;-67
2022/06/11 06:48:32;;;;;;;1.77;1.30;;;21.70;99.90;;;;;;5057497;28;20221;-67
2022/06/11 06:51:01;;;;;;;1.83;1.30;;;21.80;99.90;;;;;;5049684;28;20173;-67
2022/06/11 06:53:27;;;;;;;2.05;1.30;;;21.80;99.90;;;;;;5051140;28;20235;-67
2022/06/11 06:55:53;;;;;;;3.00;1.40;;;21.80;99.90;;;;;;5048856;28;20280;-67
2022/06/11 06:58:19;;;;;;;1.92;1.40;;;21.90;99.90;;;;;;5041415;28;20231;-67
2022/06/11 07:00:46;;;;;;;2.55;1.13;;;21.90;99.90;;;;;;5088449;28;20205;-67
2022/06/11 07:03:12;;;;;;;2.85;1.40;;;22.00;99.90;;;;;;5053043;28;20224;-67
2022/06/11 07:05:41;;;;;;;3.75;1.65;;;22.10;99.90;;;;;;5053898;28;20256;-67
2022/06/11 07:08:07;;;;;;;2.45;1.40;;;22.10;99.90;;;;;;5051542;28;20245;-67
2022/06/11 07:10:34;;;;;;;2.53;1.33;;;22.20;99.90;;;;;;5053100;28;20191;-67
2022/06/11 07:13:01;;;;;;;2.17;1.23;;;22.30;99.90;;;;;;5052750;28;20181;-67
2022/06/11 07:15:29;;;;;;;3.38;1.30;;;22.40;99.90;;;;;;5053002;28;20277;-68
2022/06/11 07:18:00;;;;;;;1.30;1.15;;;22.50;99.90;;;;;;5053808;28;20181;-66
2022/06/11 07:20:30;;;;;;;9.30;7.75;;;22.60;99.90;;;;;;5041783;28;20288;-70
2022/06/11 07:22:58;;;;;;;5.90;4.45;;;22.60;99.90;;;;;;5044861;28;20204;-69
2022/06/11 07:25:24;;;;;;;5.95;3.00;;;22.70;99.90;;;;;;5050718;28;20227;-68
2022/06/11 07:27:59;;;;;;;3.67;2.20;;;22.80;99.90;;;;;;5041287;28;20174;-69
2022/06/11 07:30:27;;;;;;;2.72;1.92;;;22.90;99.90;;;;;;5087359;28;20181;-69
2022/06/11 07:33:05;;;;;;;3.15;1.60;;;23.00;99.90;;;;;;5054256;28;20254;-68
2022/06/11 07:35:34;;;;;;;3.58;1.60;;;23.10;99.90;;;;;;5053674;28;20188;-70
2022/06/11 07:38:00;;;;;;;2.20;1.63;;;23.10;99.90;;;;;;5086768;28;20208;-68
2022/06/11 07:40:28;;;;;;;2.42;1.50;;;23.20;99.90;;;;;;5052491;28;20188;-69
2022/06/11 07:42:54;;;;;;;2.50;1.40;;;23.30;99.90;;;;;;5038238;28;20189;-70
2022/06/11 07:45:19;;;;;;;3.65;1.65;;;23.40;99.90;;;;;;5053707;28;20189;-70
2022/06/11 07:47:54;;;;;;;2.65;1.45;;;23.40;99.90;;;;;;5086994;28;20174;-70
2022/06/11 07:50:25;;;;;;;2.40;1.40;;;23.50;99.90;;;;;;5053614;28;20275;-69
2022/06/11 07:52:54;;;;;;;3.70;1.50;;;23.60;99.90;;;;;;5053380;28;20177;-68
2022/06/11 07:55:20;;;;;;;2.08;1.30;;;23.70;99.90;;;;;;5046132;28;20188;-70
2022/06/11 07:57:49;;;;;;;1.90;1.38;;;23.70;99.90;;;;;;5050704;28;20197;-69
2022/06/11 08:00:22;;;;;;;1.92;1.30;;;23.70;99.90;;;;;;5083615;28;20182;-66
2022/06/11 08:02:48;;;;;;;2.05;1.20;;;23.90;99.90;;;;;;5063084;28;20615;-68
2022/06/11 08:05:14;;;;;;;3.15;1.20;;;23.90;99.90;;;;;;5054534;28;20197;-69
2022/06/11 08:07:39;;;;;;;2.65;1.30;;;23.90;99.90;;;;;;5053369;28;20178;-69
2022/06/11 08:10:05;;;;;;;4.07;1.40;;;24.00;99.90;;;;;;5046034;28;20216;-67
2022/06/11 08:12:31;;;;;;;2.47;1.42;;;24.10;99.90;;;;;;5051166;28;20181;-69
2022/06/11 08:14:57;;;;;;;2.00;1.20;;;24.20;99.90;;;;;;5053374;28;20189;-69
2022/06/11 08:17:29;;;;;;;2.10;1.15;;;24.20;99.90;;;;;;5053933;28;20177;-68
2022/06/11 08:19:55;;;;;;;2.13;1.20;;;24.30;99.90;;;;;;5045632;28;20192;-69
2022/06/11 08:22:21;;;;;;;4.85;1.40;;;24.40;99.90;;;;;;5048213;28;20170;-69
2022/06/11 08:24:48;;;;;;;2.45;1.20;;;24.40;99.90;;;;;;5043792;28;20207;-70
2022/06/11 08:27:14;;;;;;;1.75;1.27;;;24.40;99.90;;;;;;5086166;28;20185;-70
2022/06/11 08:29:42;;;;;;;2.75;1.52;;;24.50;99.90;;;;;;5051197;28;20169;-69
2022/06/11 08:32:10;;;;;;;2.40;1.45;;;24.50;99.90;;;;;;5049126;28;20199;-70
2022/06/11 08:34:41;;;;;;;4.93;1.60;;;24.50;99.90;;;;;;5047963;28;20248;-70
2022/06/11 08:37:09;;;;;;;2.63;1.30;;;24.50;99.90;;;;;;5054406;28;20246;-69
2022/06/11 08:39:36;;;;;;;1.67;1.20;;;24.50;99.90;;;;;;5049343;28;20257;-70
2022/06/11 08:42:04;;;;;;;2.22;1.20;;;24.50;99.90;;;;;;5049979;28;20180;-70
2022/06/11 08:44:35;;;;;;;2.28;1.10;;;24.50;99.90;;;;;;5052751;28;20185;-69
2022/06/11 08:47:06;;;;;;;2.08;1.17;;;24.60;99.90;;;;;;5051792;28;20212;-69
2022/06/11 08:49:46;;;;;;;1.40;1.00;;;24.60;99.90;;;;;;5052388;28;20173;-70
2022/06/11 08:52:17;;;;;;;2.55;1.30;;;24.60;99.90;;;;;;5054264;28;20183;-70
2022/06/11 08:54:47;;;;;;;2.78;1.25;;;24.50;99.90;;;;;;5048943;28;20185;-70
2022/06/11 08:57:44;;;;;;;1.33;1.00;;;24.60;99.90;;;;;;5050375;28;20184;-70
2022/06/11 09:00:21;;;;;;;1.63;0.95;;;24.60;99.90;;;;;;5068387;28;20236;-70
2022/06/11 09:02:49;;;;;;;1.70;0.90;;;24.50;99.90;;;;;;5050882;28;20288;-70
2022/06/11 09:05:59;;;;;;;1.42;1.00;;;24.50;99.90;;;;;;5046176;28;20190;-70
2022/06/11 09:09:06;;;;;;;1.60;1.10;;;24.50;99.90;;;;;;5052199;28;20201;-70
2022/06/11 09:11:35;;;;;;;2.70;1.20;;;24.40;99.90;;;;;;5064761;28;20228;-70
2022/06/11 09:14:15;;;;;;;2.45;1.30;;;24.40;99.90;;;;;;5060308;28;20200;-70
2022/06/11 09:16:49;;;;;;;1.73;1.08;;;24.40;99.90;;;;;;5048022;28;20180;-70
2022/06/11 09:19:18;;;;;;;1.77;1.20;;;24.40;99.90;;;;;;5052667;28;20218;-70
2022/06/11 09:22:08;;;;;;;3.40;1.33;;;24.40;99.90;;;;;;5052008;28;20200;-70
2022/06/11 09:24:52;;;;;;;3.42;1.10;;;24.40;99.90;;;;;;5045686;28;20267;-70
2022/06/11 09:27:30;;;;;;;1.65;1.02;;;24.40;99.90;;;;;;5038692;28;20209;-71
2022/06/11 09:30:14;;;;;;;2.00;1.10;;;24.50;99.90;;;;;;5057239;28;20180;-70
2022/06/11 09:33:24;;;;;;;1.75;1.02;;;24.50;99.90;;;;;;5043000;28;20194;-69
2022/06/11 09:36:06;;;;;;;1.75;0.98;;;24.50;99.90;;;;;;5028612;28;20181;-69
2022/06/11 09:38:54;;;;;;;2.83;1.10;;;24.50;99.90;;;;;;5055194;28;20255;-70
2022/06/11 09:41:22;;;;;;;2.00;1.08;;;24.60;99.90;;;;;;5056907;28;20185;-69
2022/06/11 09:43:54;;;;;;;1.60;1.08;;;24.60;99.90;;;;;;5084770;28;20197;-69
2022/06/11 09:46:29;;;;;;;6.32;1.40;;;24.70;99.90;;;;;;5066757;28;20182;-68
2022/06/11 09:49:11;;;;;;;2.22;1.08;;;24.70;99.90;;;;;;5051328;28;20223;-68
2022/06/11 09:52:09;;;;;;;0.98;0.82;;;24.80;99.90;;;;;;5065628;28;20197;-71
2022/06/11 09:54:48;;;;;;;1.00;0.88;;;24.90;99.90;;;;;;5061517;28;20211;-70
2022/06/11 09:57:23;;;;;;;1.92;1.00;;;24.90;99.90;;;;;;5054621;28;20177;-71
2022/06/11 10:00:08;;;;;;;1.27;0.98;;;25.00;99.90;;;;;;5057962;28;20196;-71
2022/06/11 10:03:38;;;;;;;2.63;1.20;;;25.10;99.90;;;;;;5058103;28;20333;-72
2022/06/11 10:06:30;;;;;;;1.50;1.10;;;25.20;99.90;;;;;;5057599;28;20254;-71
2022/06/11 10:09:00;;;;;;;1.88;0.82;;;25.40;99.90;;;;;;5055985;28;20212;-72
2022/06/11 10:11:51;;;;;;;1.75;1.00;;;25.50;99.90;;;;;;5055269;28;20198;-71
2022/06/11 10:14:28;;;;;;;1.40;1.30;;;25.60;99.90;;;;;;5057396;28;20220;-72
2022/06/11 10:16:59;;;;;;;1.95;1.00;;;25.70;99.90;;;;;;5050573;28;20205;-69
2022/06/11 10:19:45;;;;;;;1.75;1.13;;;25.90;99.90;;;;;;5057792;28;20203;-72
2022/06/11 10:22:37;;;;;;;1.77;1.00;;;26.10;99.90;;;;;;5058313;28;20185;-72
2022/06/11 10:25:19;;;;;;;1.00;0.90;;;26.30;99.90;;;;;;5060819;28;20181;-72
2022/06/11 10:27:58;;;;;;;1.17;0.80;;;26.40;99.90;;;;;;5055802;28;20177;-72
2022/06/11 10:31:02;;;;;;;1.25;0.80;;;26.50;99.90;;;;;;5047394;28;20170;-71
2022/06/11 10:33:46;;;;;;;1.13;0.70;;;26.60;99.90;;;;;;5047993;28;20177;-72
2022/06/11 10:36:34;;;;;;;1.25;0.80;;;26.60;99.90;;;;;;5047583;28;20335;-72
2022/06/11 10:39:11;;;;;;;1.15;0.80;;;26.60;99.90;;;;;;5047528;28;20258;-71
2022/06/11 10:41:53;;;;;;;2.45;0.82;;;26.60;99.90;;;;;;5053563;28;20262;-72
2022/06/11 10:44:46;;;;;;;1.00;0.85;;;26.60;99.90;;;;;;5046500;28;20227;-72
2022/06/11 10:47:29;;;;;;;2.05;1.00;;;26.60;99.90;;;;;;5053692;28;20189;-71
2022/06/11 10:50:20;;;;;;;1.00;0.80;;;26.70;99.90;;;;;;5046637;28;20211;-71
2022/06/11 10:53:26;;;;;;;0.90;0.80;;;26.70;99.90;;;;;;5049733;28;20221;-71
2022/06/11 10:56:06;;;;;;;1.02;0.90;;;26.70;99.90;;;;;;5046461;28;20169;-71
2022/06/11 10:58:50;;;;;;;1.20;0.70;;;26.70;99.90;;;;;;5053064;28;20185;-73
2022/06/11 11:01:26;;;;;;;2.08;0.80;;;26.70;99.90;;;;;;5069263;28;20181;-71
2022/06/11 11:04:15;;;;;;;1.75;0.77;;;26.70;99.90;;;;;;5051431;28;20497;-70
2022/06/11 11:06:42;;;;;;;1.05;0.75;;;26.60;99.90;;;;;;5054626;28;20208;-70
2022/06/11 11:09:13;;;;;;;1.42;0.73;;;26.60;99.90;;;;;;5051390;28;20193;-70
2022/06/11 11:11:46;;;;;;;1.00;0.80;;;26.50;99.90;;;;;;5038092;28;20198;-70
2022/06/11 11:14:30;;;;;;;0.80;0.75;;;26.40;99.90;;;;;;5052121;28;20192;-71
2022/06/11 11:17:00;;;;;;;2.13;0.80;;;26.30;99.90;;;;;;5050953;28;20265;-70
2022/06/11 11:19:31;;;;;;;1.23;0.75;;;26.20;99.90;;;;;;5044382;28;20196;-70
2022/06/11 11:22:03;;;;;;;1.60;0.90;;;26.20;99.90;;;;;;5052134;28;20177;-70
2022/06/11 11:24:46;;;;;;;2.45;1.30;;;26.10;99.90;;;;;;5047033;28;20209;-71
2022/06/11 11:27:41;;;;;;;2.08;0.82;;;26.20;99.90;;;;;;5044322;28;20205;-72
2022/06/11 11:30:20;;;;;;;1.50;1.00;;;26.40;99.90;;;;;;5053874;28;20189;-72
2022/06/11 11:32:47;;;;;;;1.70;1.10;;;26.70;99.90;;;;;;5042658;28;20196;-72
2022/06/11 11:35:16;;;;;;;1.73;1.00;;;27.00;99.90;;;;;;5054090;28;20177;-72
2022/06/11 11:37:54;;;;;;;2.20;1.05;;;27.20;99.90;;;;;;5046416;28;20189;-72
2022/06/11 11:40:48;;;;;;;1.67;1.10;;;27.50;99.90;;;;;;5053397;28;20264;-71
2022/06/11 11:43:18;;;;;;;1.80;1.00;;;27.70;99.90;;;;;;5048856;28;20193;-72
2022/06/11 11:45:48;;;;;;;1.98;1.20;;;27.90;99.90;;;;;;5041014;28;20177;-71
2022/06/11 11:48:42;;;;;;;1.73;0.95;;;28.10;99.90;;;;;;5046474;28;20284;-71
2022/06/11 11:51:18;;;;;;;2.15;1.10;;;28.30;99.90;;;;;;5051006;28;20185;-73
2022/06/11 11:53:49;;;;;;;2.10;0.95;;;28.50;99.90;;;;;;5050979;28;20173;-71
2022/06/11 11:56:24;;;;;;;1.02;0.90;;;28.60;99.90;;;;;;5043841;28;20176;-71
2022/06/11 11:58:55;;;;;;;1.13;0.95;;;28.80;99.90;;;;;;5084047;28;20207;-71
2022/06/11 12:01:25;;;;;;;1.33;0.90;;;29.00;99.90;;;;;;5051602;28;20197;-71
2022/06/11 12:04:07;;;;;;;1.00;0.82;;;29.20;99.90;;;;;;5047915;28;20209;-69
2022/06/11 12:06:46;;;;;;;1.77;1.08;;;29.40;99.90;;;;;;5069335;28;20173;-70
2022/06/11 12:09:39;;;;;;;2.50;0.90;;;29.50;99.90;;;;;;5042350;28;20177;-68
2022/06/11 12:12:13;;;;;;;1.20;1.05;;;29.70;99.90;;;;;;5048121;28;20215;-69
2022/06/11 12:14:50;;;;;;;1.05;0.82;;;29.70;99.90;;;;;;5045979;28;20201;-69
2022/06/11 12:17:35;;;;;;;2.85;1.00;;;29.70;99.90;;;;;;5052871;28;20177;-68
2022/06/11 12:20:07;;;;;;;1.88;0.90;;;29.60;99.90;;;;;;5061132;28;20271;-69
2022/06/11 12:22:51;;;;;;;1.38;0.90;;;29.50;99.90;;;;;;5048468;28;20180;-68
2022/06/11 12:25:39;;;;;;;1.42;0.95;;;29.40;99.90;;;;;;5045813;28;20193;-67
2022/06/11 12:28:12;;;;;;;2.20;1.00;;;29.30;99.90;;;;;;5045275;28;20176;-68
2022/06/11 12:30:38;;;;;;;1.00;0.80;;;29.10;99.90;;;;;;5049536;28;20173;-69
2022/06/11 12:33:13;;;;;;;1.77;1.08;;;29.00;99.90;;;;;;5079003;28;20207;-70
2022/06/11 12:35:51;;;;;;;1.40;1.10;;;29.10;99.90;;;;;;5044223;28;20172;-70
2022/06/11 12:38:43;;;;;;;1.67;1.00;;;29.20;99.90;;;;;;5053314;28;20196;-69
2022/06/11 12:41:42;;;;;;;1.73;1.00;;;29.30;99.90;;;;;;5068335;28;20177;-69
2022/06/11 12:44:28;;;;;;;1.30;1.20;;;29.30;99.90;;;;;;5046365;28;20217;-70
2022/06/11 12:46:54;;;;;;;1.25;1.10;;;29.20;99.90;;;;;;5053088;28;20193;-69
2022/06/11 12:49:52;;;;;;;1.10;1.00;;;29.20;99.90;;;;;;5053891;28;20165;-69
2022/06/11 12:52:40;;;;;;;1.05;0.80;;;29.00;99.90;;;;;;5050325;28;20201;-68
2022/06/11 12:55:36;;;;;;;1.27;0.90;;;28.90;99.90;;;;;;5050039;28;20173;-69
2022/06/11 12:58:13;;;;;;;1.80;1.05;;;28.80;99.90;;;;;;5052733;28;20177;-69
2022/06/11 13:00:42;;;;;;;2.33;1.13;;;28.70;99.90;;;;;;5052383;28;20171;-69
2022/06/11 13:03:50;;;;;;;1.77;1.10;;;28.60;99.90;;;;;;5043386;28;20198;-69
2022/06/11 13:06:27;;;;;;;1.35;0.98;;;28.70;99.90;;;;;;5016541;28;20189;-68
2022/06/11 13:09:22;;;;;;;2.28;1.10;;;28.80;99.90;;;;;;5064110;28;20184;-69
2022/06/11 13:12:15;;;;;;;1.58;1.00;;;29.00;99.90;;;;;;5042457;28;20201;-68
2022/06/11 13:14:50;;;;;;;4.40;1.40;;;29.20;99.90;;;;;;5046283;28;20260;-68
2022/06/11 13:17:48;;;;;;;1.50;1.23;;;29.20;99.90;;;;;;5046621;28;20207;-69
2022/06/11 13:20:42;;;;;;;2.72;1.15;;;29.20;99.90;;;;;;5067313;28;20185;-68
2022/06/11 13:23:21;;;;;;;1.67;1.20;;;29.20;99.90;;;;;;5054009;28;20247;-68
2022/06/11 13:25:59;;;;;;;1.98;1.17;;;29.20;99.90;;;;;;5052958;28;20181;-69
2022/06/11 13:28:37;;;;;;;1.92;1.10;;;29.10;99.90;;;;;;5052140;28;20178;-70
2022/06/11 13:31:50;;;;;;;1.10;1.00;;;29.00;99.90;;;;;;5051744;28;20193;-70